Time;durP1;ratioP1;P1;durP2;ratioP2;P2;SDS_P1;SDS_P2;PMS_P1;PMS_P2;Temp;Humidity;BMP_temperature;BMP_pressure;BME280_temperature;BME280_humidity;BME280_pressure;Samples;Min_cycle;Max_cycle;Signal;HPM_P1;HPM_P2
2022/08/03 00:00:02;;;;;;;989.75;924.85;;;;;;;23.01;46.44;101218.28;701505;28;23496;-65
2022/08/03 00:00:38;;;;;;;973.05;908.90;;;;;;;23.01;46.31;101218.28;697639;28;135993;-65
2022/08/03 00:00:59;;;;;;;983.55;918.95;;;;;;;23.00;46.23;101224.88;697722;28;138037;-65
2022/08/03 00:01:20;;;;;;;975.78;911.50;;;;;;;23.00;46.52;101224.88;702212;28;22411;-65
2022/08/03 00:01:43;;;;;;;964.85;901.05;;;;;;;22.99;46.24;101217.69;701133;28;22248;-66
2022/08/03 00:02:04;;;;;;;963.55;899.72;;;;;;;23.00;46.36;101222.13;699686;28;69413;-66
2022/08/03 00:02:26;;;;;;;964.08;900.30;;;;;;;23.00;46.23;101216.63;701955;28;24582;-66
2022/08/03 00:02:47;;;;;;;972.03;907.92;;;;;;;22.99;46.40;101221.31;700809;28;46152;-66
2022/08/03 00:03:09;;;;;;;961.88;898.15;;;;;;;22.99;46.50;101223.19;701394;28;21534;-66
2022/08/03 00:03:30;;;;;;;968.63;904.72;;;;;;;22.98;46.41;101221.53;701487;28;44249;-65
2022/08/03 00:03:51;;;;;;;947.10;883.88;;;;;;;22.98;46.12;101214.09;701159;28;22388;-66
2022/08/03 00:04:12;;;;;;;930.75;868.00;;;;;;;22.97;46.00;101214.34;702574;28;21537;-66
2022/08/03 00:04:35;;;;;;;922.40;859.97;;;;;;;22.98;46.17;101213.28;703351;28;21376;-65
2022/08/03 00:04:56;;;;;;;927.38;864.83;;;;;;;22.95;46.27;101222.88;699743;28;69274;-66
2022/08/03 00:05:17;;;;;;;935.47;872.67;;;;;;;22.96;46.41;101219.03;701974;28;23445;-66
2022/08/03 00:05:38;;;;;;;944.58;881.40;;;;;;;22.97;46.18;101222.63;701669;28;23393;-66
2022/08/03 00:06:01;;;;;;;941.17;878.03;;;;;;;22.97;46.32;101217.13;702061;28;22385;-66
2022/08/03 00:06:22;;;;;;;939.65;876.65;;;;;;;22.97;46.31;101219.88;700421;28;69382;-66
2022/08/03 00:06:44;;;;;;;927.10;864.40;;;;;;;22.97;46.16;101220.69;700164;28;44193;-66
2022/08/03 00:07:05;;;;;;;916.00;853.58;;;;;;;22.95;46.15;101214.59;700554;28;23599;-66
2022/08/03 00:07:27;;;;;;;929.78;866.97;;;;;;;22.94;46.19;101217.59;700645;28;46212;-67
2022/08/03 00:07:48;;;;;;;945.15;881.90;;;;;;;22.95;46.39;101222.03;700728;28;43575;-67
2022/08/03 00:08:09;;;;;;;937.63;874.63;;;;;;;22.88;46.22;101205.66;702149;28;23576;-66
2022/08/03 00:08:31;;;;;;;950.60;887.10;;;;;;;22.89;46.07;101215.59;701982;28;22395;-66
2022/08/03 00:08:53;;;;;;;960.05;896.15;;;;;;;22.93;46.20;101213.16;701442;28;2062;-65
2022/08/03 00:09:14;;;;;;;964.45;900.40;;;;;;;22.92;46.24;101217.03;700378;28;69385;-66
2022/08/03 00:09:35;;;;;;;966.85;902.75;;;;;;;22.92;46.22;101222.53;701697;28;21507;-66
2022/08/03 00:09:57;;;;;;;966.55;902.40;;;;;;;22.90;46.17;101217.28;701172;28;23470;-66
2022/08/03 00:10:18;;;;;;;967.47;903.38;;;;;;;22.89;46.21;101226.63;701807;28;23482;-66
2022/08/03 00:10:40;;;;;;;989.83;924.93;;;;;;;22.90;46.28;101216.41;701288;28;44901;-66
2022/08/03 00:11:02;;;;;;;989.10;924.30;;;;;;;22.88;46.52;101213.91;699854;28;69239;-66
2022/08/03 00:11:25;;;;;;;982.00;917.50;;;;;;;22.88;46.21;101216.66;700647;28;46298;-66
2022/08/03 00:11:46;;;;;;;980.85;916.38;;;;;;;22.87;46.37;101215.03;702236;28;8343;-66
2022/08/03 00:12:09;;;;;;;977.50;913.13;;;;;;;22.87;46.34;101220.53;701294;28;22412;-66
2022/08/03 00:12:30;;;;;;;965.72;901.83;;;;;;;22.87;46.25;101215.03;701650;28;46273;-65
2022/08/03 00:12:51;;;;;;;971.50;907.35;;;;;;;22.87;46.31;101220.53;701801;28;45214;-66
2022/08/03 00:13:13;;;;;;;969.83;905.72;;;;;;;22.86;46.39;101219.66;702747;28;22409;-66
2022/08/03 00:13:34;;;;;;;973.40;909.20;;;;;;;22.84;46.24;101215.50;701080;28;21256;-66
2022/08/03 00:13:56;;;;;;;974.72;910.45;;;;;;;22.85;46.55;101220.78;700946;28;22480;-66
2022/08/03 00:14:18;;;;;;;964.60;900.72;;;;;;;22.86;46.34;101207.81;700246;28;69429;-67
2022/08/03 00:14:39;;;;;;;930.72;867.88;;;;;;;22.86;46.50;101222.44;702459;28;22429;-67
2022/08/03 00:15:00;;;;;;;912.45;850.17;;;;;;;22.85;46.50;101212.50;701849;28;23427;-66
2022/08/03 00:15:21;;;;;;;940.25;877.13;;;;;;;22.88;46.54;101221.34;702657;28;11120;-66
2022/08/03 00:15:44;;;;;;;951.55;888.05;;;;;;;22.87;46.56;101215.03;701511;28;46330;-66
2022/08/03 00:16:05;;;;;;;941.33;878.15;;;;;;;22.87;46.63;101212.25;700248;28;46401;-66
2022/08/03 00:16:26;;;;;;;952.47;888.95;;;;;;;22.87;46.54;101206.75;701811;28;4752;-66
2022/08/03 00:16:47;;;;;;;924.92;862.30;;;;;;;22.88;46.48;101221.34;701763;28;22462;-67
2022/08/03 00:17:10;;;;;;;936.35;873.28;;;;;;;22.88;46.45;101216.66;700026;28;46376;-66
2022/08/03 00:17:31;;;;;;;948.10;884.70;;;;;;;22.88;46.65;101215.84;702356;28;28443;-66
2022/08/03 00:17:53;;;;;;;966.53;902.60;;;;;;;22.88;46.41;101213.91;701867;28;1523;-66
2022/08/03 00:18:14;;;;;;;975.88;911.58;;;;;;;22.89;46.64;101212.84;701934;28;22485;-66
2022/08/03 00:18:36;;;;;;;937.33;874.35;;;;;;;22.90;46.58;101217.28;702499;28;23499;-66
2022/08/03 00:18:57;;;;;;;949.38;885.95;;;;;;;22.89;46.45;101210.09;700440;28;45029;-66
2022/08/03 00:19:19;;;;;;;974.92;910.63;;;;;;;22.88;46.61;101208.41;702132;28;22476;-65
2022/08/03 00:19:40;;;;;;;974.33;910.10;;;;;;;22.89;46.63;101209.25;701765;28;45331;-67
2022/08/03 00:20:01;;;;;;;979.22;914.83;;;;;;;22.89;46.80;101209.25;703024;28;22357;-66
2022/08/03 00:20:24;;;;;;;972.00;907.90;;;;;;;22.89;46.56;101212.84;704418;28;1745;-66
2022/08/03 00:20:45;;;;;;;970.30;906.22;;;;;;;22.87;46.77;101212.25;703491;28;69450;-66
2022/08/03 00:21:15;;;;;;;959.25;895.47;;;;;;;22.89;46.86;101209.25;701637;28;62416;-66
2022/08/03 00:21:37;;;;;;;962.50;898.63;;;;;;;22.89;46.85;101210.09;701572;28;22842;-66
2022/08/03 00:21:58;;;;;;;963.90;899.90;;;;;;;22.87;46.33;101212.25;701232;28;67299;-66
2022/08/03 00:22:20;;;;;;;968.03;903.88;;;;;;;22.87;46.47;101212.25;699610;28;22227;-66
2022/08/03 00:22:41;;;;;;;975.78;911.38;;;;;;;22.89;46.68;101207.34;699433;28;46332;-66
2022/08/03 00:23:03;;;;;;;952.97;889.35;;;;;;;22.89;46.56;101212.84;700538;28;22261;-66
2022/08/03 00:23:24;;;;;;;925.72;863.10;;;;;;;22.90;46.81;101211.78;702178;28;46106;-66
2022/08/03 00:23:47;;;;;;;936.03;873.08;;;;;;;22.88;46.82;101213.09;702357;28;22366;-66
2022/08/03 00:24:08;;;;;;;938.28;875.25;;;;;;;22.90;46.72;101205.41;701687;28;45247;-66
2022/08/03 00:24:30;;;;;;;949.67;886.22;;;;;;;22.89;46.64;101212.84;701361;28;23595;-67
2022/08/03 00:24:51;;;;;;;948.72;885.30;;;;;;;22.88;46.52;101202.91;700522;28;69424;-66
2022/08/03 00:25:12;;;;;;;937.95;874.88;;;;;;;22.89;46.44;101210.09;701075;28;22374;-67
2022/08/03 00:25:35;;;;;;;951.50;887.92;;;;;;;22.89;46.71;101209.25;702522;28;22395;-66
2022/08/03 00:25:56;;;;;;;954.72;891.13;;;;;;;22.89;46.50;101206.50;699886;28;45237;-68
2022/08/03 00:26:17;;;;;;;942.25;879.05;;;;;;;22.89;46.70;101207.34;701483;28;46316;-66
2022/08/03 00:26:40;;;;;;;947.28;883.90;;;;;;;22.88;46.38;101211.16;701950;28;22108;-66
2022/08/03 00:27:02;;;;;;;963.60;899.58;;;;;;;22.86;46.83;101203.16;699550;28;69473;-67
2022/08/03 00:27:24;;;;;;;956.22;892.55;;;;;;;22.85;46.80;101201.50;700496;28;46053;-66
2022/08/03 00:27:45;;;;;;;937.25;874.15;;;;;;;22.86;46.62;101207.81;702255;28;21519;-65
2022/08/03 00:28:06;;;;;;;949.97;886.47;;;;;;;22.87;46.71;101206.75;702077;28;22408;-66
2022/08/03 00:28:28;;;;;;;956.33;892.65;;;;;;;22.86;46.83;101202.31;701314;28;45796;-64
2022/08/03 00:28:50;;;;;;;965.47;901.50;;;;;;;22.83;46.86;101200.88;700563;28;45243;-66
2022/08/03 00:29:11;;;;;;;966.50;902.55;;;;;;;22.82;46.66;101190.97;701427;28;22391;-66
2022/08/03 00:29:32;;;;;;;962.40;898.60;;;;;;;22.83;46.85;101200.06;703483;28;20796;-66
2022/08/03 00:29:53;;;;;;;969.65;905.60;;;;;;;22.86;46.81;101205.06;698958;28;44310;-65
2022/08/03 00:30:16;;;;;;;974.53;910.28;;;;;;;22.85;46.91;101207.00;700530;28;21318;-66
2022/08/03 00:30:37;;;;;;;975.83;911.53;;;;;;;22.86;46.96;101210.59;699350;28;45361;-66
2022/08/03 00:30:58;;;;;;;964.10;900.13;;;;;;;22.84;46.90;101199.81;698022;28;22382;-66
2022/08/03 00:31:20;;;;;;;942.25;879.08;;;;;;;22.85;47.04;101196.00;700264;28;29405;-66
2022/08/03 00:31:42;;;;;;;931.50;868.63;;;;;;;22.87;47.03;101209.50;701393;28;46298;-66
2022/08/03 00:32:03;;;;;;;921.45;858.88;;;;;;;22.89;46.85;101199.06;701223;28;23429;-66
2022/08/03 00:32:24;;;;;;;921.55;859.05;;;;;;;22.90;46.78;101194.38;702273;28;22401;-67
2022/08/03 00:32:47;;;;;;;931.88;869.05;;;;;;;22.89;46.93;101204.59;700733;28;44363;-66
2022/08/03 00:33:09;;;;;;;933.15;870.25;;;;;;;22.88;47.12;101196.56;700354;28;46297;-66
2022/08/03 00:33:30;;;;;;;934.15;871.22;;;;;;;22.91;47.12;101196.06;700628;28;45326;-66
2022/08/03 00:33:51;;;;;;;924.35;861.75;;;;;;;22.91;47.00;101196.91;701943;28;22456;-67
2022/08/03 00:34:13;;;;;;;923.78;861.28;;;;;;;22.90;46.77;101199.91;702345;28;21543;-66
2022/08/03 00:34:34;;;;;;;943.38;880.13;;;;;;;22.92;47.03;101203.25;700434;28;69463;-66
2022/08/03 00:34:56;;;;;;;924.83;862.15;;;;;;;22.93;46.91;101204.91;700697;28;45241;-66
2022/08/03 00:35:17;;;;;;;950.83;887.33;;;;;;;22.92;47.17;101201.34;701901;28;22194;-68
2022/08/03 00:35:39;;;;;;;972.85;908.58;;;;;;;22.87;47.22;101198.50;702123;28;22411;-66
2022/08/03 00:36:00;;;;;;;944.65;881.30;;;;;;;22.91;47.16;101205.16;701044;28;44378;-65
2022/08/03 00:36:21;;;;;;;945.55;882.30;;;;;;;22.88;47.15;101191.88;702136;28;23473;-66
2022/08/03 00:36:43;;;;;;;945.97;882.72;;;;;;;22.92;47.03;101200.50;699560;28;66696;-66
2022/08/03 00:37:04;;;;;;;961.35;897.42;;;;;;;22.93;47.09;101196.66;702391;28;23491;-66
2022/08/03 00:37:26;;;;;;;977.88;913.45;;;;;;;22.93;46.97;101200.25;705039;28;21363;-66
2022/08/03 00:37:48;;;;;;;958.60;894.90;;;;;;;22.93;47.04;101199.41;703559;28;45284;-67
2022/08/03 00:38:09;;;;;;;983.60;918.90;;;;;;;22.92;46.85;101197.75;703387;28;46097;-67
2022/08/03 00:38:30;;;;;;;979.33;914.90;;;;;;;22.91;47.14;101196.06;704828;28;21532;-66
2022/08/03 00:38:52;;;;;;;971.85;907.75;;;;;;;22.89;47.03;101192.75;702610;28;23456;-66
2022/08/03 00:39:14;;;;;;;974.40;910.17;;;;;;;22.88;47.05;101193.81;702107;28;21567;-66
2022/08/03 00:39:35;;;;;;;969.42;905.30;;;;;;;22.85;47.18;101192.38;700228;28;69417;-67
2022/08/03 00:39:56;;;;;;;964.72;900.72;;;;;;;22.84;47.24;101191.56;701049;28;22194;-66
2022/08/03 00:40:18;;;;;;;967.90;903.90;;;;;;;22.81;47.45;101188.47;701988;28;23468;-66
2022/08/03 00:40:40;;;;;;;972.42;908.20;;;;;;;22.82;47.16;101187.38;700983;28;46359;-66
2022/08/03 00:41:02;;;;;;;970.35;906.05;;;;;;;22.82;47.18;101196.47;701514;28;45239;-67
2022/08/03 00:41:23;;;;;;;960.03;896.15;;;;;;;22.81;47.32;101197.56;701132;28;22523;-66
2022/08/03 00:41:45;;;;;;;930.63;867.80;;;;;;;22.80;47.34;101200.56;700796;28;46201;-66
2022/08/03 00:42:07;;;;;;;944.33;881.05;;;;;;;22.78;47.05;101189.78;700527;28;46345;-66
2022/08/03 00:42:28;;;;;;;950.20;886.80;;;;;;;22.78;47.36;101195.28;701572;28;44369;-66
2022/08/03 00:42:52;;;;;;;955.67;892.08;;;;;;;22.76;47.09;101191.97;700458;28;46319;-66
2022/08/03 00:43:13;;;;;;;965.70;901.70;;;;;;;22.75;47.37;101200.47;699494;28;92262;-66
2022/08/03 00:43:35;;;;;;;926.67;864.00;;;;;;;22.73;47.41;101186.94;701795;28;21595;-67
2022/08/03 00:43:56;;;;;;;927.38;864.75;;;;;;;22.74;47.49;101201.53;701524;28;21525;-66
2022/08/03 00:44:18;;;;;;;933.60;870.72;;;;;;;22.74;47.37;101193.28;701964;28;21495;-66
2022/08/03 00:44:40;;;;;;;949.80;886.35;;;;;;;22.74;47.38;101193.28;700407;28;70317;-66
2022/08/03 00:45:01;;;;;;;972.22;908.03;;;;;;;22.73;47.40;101192.47;700533;28;47039;-66
2022/08/03 00:45:25;;;;;;;984.50;919.85;;;;;;;22.68;47.31;101184.13;700762;28;46271;-66
2022/08/03 00:45:48;;;;;;;991.20;926.30;;;;;;;22.71;47.41;101194.63;700058;28;67584;-66
2022/08/03 00:46:09;;;;;;;978.85;914.38;;;;;;;22.71;47.57;101197.38;700500;28;69374;-66
2022/08/03 00:46:30;;;;;;;968.17;904.13;;;;;;;22.73;47.46;101199.88;701240;28;23220;-66
2022/08/03 00:46:51;;;;;;;962.83;898.92;;;;;;;22.73;47.41;101188.84;700628;28;46216;-66
2022/08/03 00:47:13;;;;;;;960.67;896.78;;;;;;;22.73;47.46;101192.47;702195;28;21557;-66
2022/08/03 00:47:35;;;;;;;969.83;905.65;;;;;;;22.73;47.31;101191.59;702186;28;21337;-67
2022/08/03 00:47:57;;;;;;;971.88;907.67;;;;;;;22.73;47.46;101199.88;700857;28;44382;-66
2022/08/03 00:48:18;;;;;;;965.35;901.33;;;;;;;22.73;47.47;101197.09;701379;28;44372;-66
2022/08/03 00:48:39;;;;;;;968.00;903.90;;;;;;;22.73;47.64;101192.47;701403;28;21412;-66
2022/08/03 00:49:02;;;;;;;963.50;899.50;;;;;;;22.71;47.53;101194.63;701362;28;21545;-67
2022/08/03 00:49:23;;;;;;;940.97;877.78;;;;;;;22.72;47.43;101187.19;700289;28;69387;-66
2022/08/03 00:49:44;;;;;;;924.67;862.05;;;;;;;22.70;47.49;101184.69;701731;28;22389;-66
2022/08/03 00:50:06;;;;;;;918.65;856.20;;;;;;;22.72;47.46;101189.94;701186;28;46411;-66
2022/08/03 00:50:30;;;;;;;932.88;870.00;;;;;;;22.71;47.38;101196.53;701616;28;22394;-66
2022/08/03 00:50:52;;;;;;;944.42;881.10;;;;;;;22.67;47.42;101194.28;698952;28;92334;-66
2022/08/03 00:51:14;;;;;;;945.65;882.25;;;;;;;22.64;47.59;101183.75;701629;28;46293;-66
2022/08/03 00:51:35;;;;;;;953.00;889.40;;;;;;;22.68;47.46;101192.38;700269;28;46287;-65
2022/08/03 00:51:56;;;;;;;940.08;876.88;;;;;;;22.68;47.42;101184.94;701568;28;23479;-66
2022/08/03 00:52:18;;;;;;;951.38;887.88;;;;;;;22.67;47.42;101194.28;702063;28;22418;-66
2022/08/03 00:52:40;;;;;;;942.33;879.10;;;;;;;22.66;47.73;101178.00;700904;28;45019;-67
2022/08/03 00:53:04;;;;;;;946.67;883.28;;;;;;;22.63;47.64;101186.75;700482;28;46100;-66
2022/08/03 00:53:27;;;;;;;941.45;878.28;;;;;;;22.65;47.56;101190.94;699702;28;92062;-66
2022/08/03 00:53:48;;;;;;;946.88;883.53;;;;;;;22.65;47.55;101196.44;699784;28;67485;-67
2022/08/03 00:54:10;;;;;;;951.67;888.15;;;;;;;22.65;47.66;101192.88;701770;28;23478;-66
2022/08/03 00:54:32;;;;;;;961.63;897.78;;;;;;;22.64;47.45;101186.50;702469;28;1404;-66
2022/08/03 00:54:53;;;;;;;966.65;902.60;;;;;;;22.64;47.36;101191.19;700453;28;46377;-66
2022/08/03 00:55:16;;;;;;;957.92;894.17;;;;;;;22.64;47.53;101193.94;701524;28;22382;-66
2022/08/03 00:55:38;;;;;;;951.70;888.15;;;;;;;22.63;47.65;101186.75;700270;28;68315;-66
2022/08/03 00:55:59;;;;;;;950.15;886.65;;;;;;;22.61;47.53;101187.00;701619;28;24829;-66
2022/08/03 00:56:20;;;;;;;948.00;884.60;;;;;;;22.63;47.54;101192.25;701735;28;45112;-66
2022/08/03 00:56:43;;;;;;;937.63;874.60;;;;;;;22.63;47.45;101195.00;701308;28;22374;-66
2022/08/03 00:57:06;;;;;;;940.95;877.63;;;;;;;22.62;47.68;101187.84;700539;28;68046;-67
2022/08/03 00:57:27;;;;;;;931.70;868.80;;;;;;;22.61;47.56;101187.00;701407;28;44993;-67
2022/08/03 00:57:49;;;;;;;934.28;871.38;;;;;;;22.62;47.52;101190.59;700879;28;44369;-67
2022/08/03 00:58:11;;;;;;;945.65;882.30;;;;;;;22.62;47.55;101193.38;702578;28;22289;-67
2022/08/03 00:58:32;;;;;;;939.20;876.05;;;;;;;22.61;47.39;101192.50;700946;28;69250;-66
2022/08/03 00:58:55;;;;;;;944.47;881.08;;;;;;;22.61;47.79;101191.69;701156;28;21404;-67
2022/08/03 00:59:17;;;;;;;940.42;877.22;;;;;;;22.61;47.77;101181.50;700631;28;67578;-67
2022/08/03 00:59:38;;;;;;;948.55;885.17;;;;;;;22.61;47.74;101187.00;701624;28;45177;-66
2022/08/03 01:00:00;;;;;;;947.85;884.45;;;;;;;22.60;47.74;101188.09;701621;28;22381;-66
2022/08/03 01:00:23;;;;;;;953.00;889.40;;;;;;;22.62;47.85;101187.84;701065;28;46307;-66
2022/08/03 01:00:45;;;;;;;970.90;906.67;;;;;;;22.61;47.79;101184.25;700440;28;69463;-67
2022/08/03 01:01:07;;;;;;;962.55;898.65;;;;;;;22.62;47.84;101185.94;701943;28;22393;-66
2022/08/03 01:01:28;;;;;;;945.17;881.90;;;;;;;22.62;47.79;101187.84;700905;28;46323;-66
2022/08/03 01:01:49;;;;;;;951.22;887.72;;;;;;;22.61;47.99;101187.00;700406;28;46406;-66
2022/08/03 01:02:10;;;;;;;953.08;889.50;;;;;;;22.59;47.83;101183.66;701716;28;22396;-66
2022/08/03 01:02:32;;;;;;;935.53;872.50;;;;;;;22.63;47.56;101178.50;702103;28;22447;-67
2022/08/03 01:02:54;;;;;;;927.50;864.70;;;;;;;22.63;47.84;101189.50;701717;28;23400;-66
2022/08/03 01:03:15;;;;;;;952.97;889.42;;;;;;;22.62;47.97;101177.66;700694;28;69293;-66
2022/08/03 01:03:37;;;;;;;966.47;902.45;;;;;;;22.63;48.01;101181.25;701928;28;22388;-67
2022/08/03 01:03:58;;;;;;;940.40;877.17;;;;;;;22.63;48.04;101184.00;702132;28;13379;-67
2022/08/03 01:04:19;;;;;;;953.60;890.05;;;;;;;22.63;47.91;101184.84;702269;28;22400;-66
2022/08/03 01:04:41;;;;;;;938.85;875.75;;;;;;;22.63;48.00;101190.38;702178;28;22353;-67
2022/08/03 01:05:03;;;;;;;936.95;873.90;;;;;;;22.64;47.98;101188.44;700205;28;69488;-67
2022/08/03 01:05:24;;;;;;;933.00;870.10;;;;;;;22.65;48.03;101184.59;701264;28;44294;-66
2022/08/03 01:05:53;;;;;;;938.38;875.28;;;;;;;22.63;48.23;101184.84;701431;28;44356;-67
2022/08/03 01:06:17;;;;;;;937.95;874.88;;;;;;;22.66;47.93;101181.59;698076;28;137629;-68
2022/08/03 01:06:45;;;;;;;964.00;900.03;;;;;;;22.67;47.97;101176.94;698494;28;92056;-68
2022/08/03 01:07:14;;;;;;;942.45;879.10;;;;;;;22.67;48.05;101187.94;698214;28;137753;-67
2022/08/03 01:07:46;;;;;;;958.15;894.42;;;;;;;22.66;48.05;101178.84;698625;28;137616;-66
2022/08/03 01:08:13;;;;;;;975.38;911.08;;;;;;;22.70;48.05;101184.69;697247;28;136019;-67
2022/08/03 01:08:40;;;;;;;977.47;913.08;;;;;;;22.70;48.02;101186.63;699044;28;122397;-68
2022/08/03 01:09:07;;;;;;;971.30;907.10;;;;;;;22.70;48.04;101179.19;698084;28;136311;-67
2022/08/03 01:09:38;;;;;;;958.97;895.17;;;;;;;22.68;48.06;101184.13;698201;28;136231;-67
2022/08/03 01:10:03;;;;;;;960.53;896.70;;;;;;;22.69;48.14;101183.00;697362;28;137892;-67
2022/08/03 01:10:30;;;;;;;964.35;900.38;;;;;;;22.71;48.04;101180.88;700829;28;43226;-67
2022/08/03 01:10:56;;;;;;;967.60;903.55;;;;;;;22.71;47.91;101189.13;697492;28;136317;-67
2022/08/03 01:11:23;;;;;;;967.42;903.33;;;;;;;22.67;48.15;101176.94;698511;28;136920;-67
2022/08/03 01:11:49;;;;;;;979.85;915.38;;;;;;;22.71;47.96;101189.13;696945;28;157482;-66
2022/08/03 01:12:16;;;;;;;978.72;914.20;;;;;;;22.68;48.10;101178.59;697596;28;161537;-66
2022/08/03 01:12:44;;;;;;;959.55;895.80;;;;;;;22.71;47.85;101185.53;698601;28;138178;-67
2022/08/03 01:13:13;;;;;;;927.78;865.05;;;;;;;22.70;47.85;101184.69;697953;28;137740;-67
2022/08/03 01:13:39;;;;;;;927.58;864.88;;;;;;;22.70;48.09;101181.94;697842;28;160673;-67
2022/08/03 01:14:05;;;;;;;929.35;866.65;;;;;;;22.70;47.88;101186.63;697685;28;137701;-68
2022/08/03 01:14:32;;;;;;;922.20;859.63;;;;;;;22.68;48.04;101184.94;700287;28;80854;-67
2022/08/03 01:14:59;;;;;;;927.05;864.33;;;;;;;22.67;47.96;101188.75;697065;28;138087;-66
2022/08/03 01:15:24;;;;;;;931.78;868.95;;;;;;;22.67;48.06;101186.00;698493;28;137405;-66
2022/08/03 01:16:03;;;;;;;939.95;876.85;;;;;;;22.67;48.14;101180.50;698297;28;115001;-67
2022/08/03 01:16:28;;;;;;;958.53;894.83;;;;;;;22.68;47.95;101192.38;699107;28;86740;-66
2022/08/03 01:16:54;;;;;;;969.35;905.20;;;;;;;22.68;48.08;101190.44;698535;28;116439;-67
2022/08/03 01:17:20;;;;;;;973.67;909.28;;;;;;;22.70;48.17;101181.94;698143;28;137915;-67
2022/08/03 01:17:49;;;;;;;966.20;902.20;;;;;;;22.70;47.75;101181.94;698258;28;138021;-66
2022/08/03 01:18:14;;;;;;;944.35;881.08;;;;;;;22.68;48.39;101181.38;698503;28;136647;-67
2022/08/03 01:18:38;;;;;;;924.67;862.08;;;;;;;22.68;48.12;101190.44;699535;28;113802;-65
2022/08/03 01:19:02;;;;;;;939.17;876.05;;;;;;;22.66;48.04;101180.75;700903;28;70135;-66
2022/08/03 01:19:40;;;;;;;938.33;875.25;;;;;;;22.66;48.04;101176.09;700248;28;93052;-66
2022/08/03 01:20:03;;;;;;;942.40;879.15;;;;;;;22.65;47.98;101179.09;698210;28;136026;-67
2022/08/03 01:20:26;;;;;;;955.13;891.50;;;;;;;22.66;48.14;101178.00;700288;28;90348;-68
2022/08/03 01:20:53;;;;;;;966.70;902.67;;;;;;;22.66;48.12;101178.84;700308;28;69401;-66
2022/08/03 01:21:19;;;;;;;956.95;893.28;;;;;;;22.64;48.03;101175.50;698980;28;137729;-66
2022/08/03 01:21:58;;;;;;;961.17;897.30;;;;;;;22.63;48.06;101186.75;697429;28;134707;-67
2022/08/03 01:22:53;;;;;;;921.55;858.97;;;;;;;22.62;48.06;101169.41;701041;28;66321;-67
2022/08/03 01:23:30;;;;;;;919.83;857.22;;;;;;;22.61;47.97;101178.75;698725;28;137525;-66
2022/08/03 01:24:12;;;;;;;968.85;904.75;;;;;;;22.62;47.99;101185.09;697777;28;137730;-67
2022/08/03 01:24:39;;;;;;;968.92;904.85;;;;;;;22.61;47.98;101181.50;698872;28;137647;-66
2022/08/03 01:25:06;;;;;;;979.78;915.33;;;;;;;22.61;48.16;101177.91;698164;28;138261;-66
2022/08/03 01:25:40;;;;;;;979.40;914.90;;;;;;;22.61;48.27;101169.66;698784;28;131811;-67
2022/08/03 01:26:12;;;;;;;975.72;911.33;;;;;;;22.61;48.40;101172.41;698493;28;138679;-66
2022/08/03 01:26:47;;;;;;;973.67;909.38;;;;;;;22.62;48.17;101165.84;698150;28;137433;-66
2022/08/03 01:27:14;;;;;;;965.03;900.88;;;;;;;22.61;48.35;101167.72;698517;28;138056;-68
2022/08/03 01:27:46;;;;;;;962.40;898.50;;;;;;;22.61;48.36;101172.41;699172;28;136222;-66
2022/08/03 01:28:28;;;;;;;936.25;873.22;;;;;;;22.61;48.51;101164.16;698956;28;137624;-67
2022/08/03 01:29:03;;;;;;;929.42;866.63;;;;;;;22.60;48.38;101167.97;698203;28;136141;-67
2022/08/03 01:29:57;;;;;;;929.78;866.95;;;;;;;22.58;48.25;101165.47;698840;28;136442;-66
2022/08/03 01:30:20;;;;;;;945.95;882.58;;;;;;;22.57;48.39;101166.56;698035;28;137708;-66
2022/08/03 01:30:43;;;;;;;941.17;878.03;;;;;;;22.57;48.38;101172.06;700779;28;69432;-66
2022/08/03 01:31:06;;;;;;;918.63;856.08;;;;;;;22.57;48.26;101168.47;700573;28;69420;-66
2022/08/03 01:31:32;;;;;;;932.47;869.58;;;;;;;22.55;48.25;101174.22;699355;28;92205;-66
2022/08/03 01:31:57;;;;;;;923.97;861.28;;;;;;;22.55;48.29;101168.72;698383;28;115179;-66
2022/08/03 01:32:21;;;;;;;943.60;880.38;;;;;;;22.55;48.12;101165.97;699243;28;113558;-66
2022/08/03 01:32:47;;;;;;;960.17;896.38;;;;;;;22.54;47.94;101171.72;699742;28;90709;-66
2022/08/03 01:33:12;;;;;;;950.83;887.35;;;;;;;22.53;48.23;101172.81;698212;28;136404;-66
2022/08/03 01:33:35;;;;;;;955.22;891.65;;;;;;;22.53;48.16;101172.81;699179;28;115105;-66
2022/08/03 01:34:00;;;;;;;956.58;892.88;;;;;;;22.51;48.03;101167.56;700363;28;66815;-66
2022/08/03 01:34:24;;;;;;;961.60;897.80;;;;;;;22.50;48.12;101169.44;699127;28;115073;-65
2022/08/03 01:34:50;;;;;;;965.33;901.42;;;;;;;22.50;48.29;101168.63;699502;28;92997;-66
2022/08/03 01:35:21;;;;;;;971.15;907.00;;;;;;;22.50;48.15;101174.97;698354;28;137885;-66
2022/08/03 01:35:46;;;;;;;981.72;917.17;;;;;;;22.48;48.37;101168.88;698231;28;137745;-66
2022/08/03 01:36:10;;;;;;;973.60;909.35;;;;;;;22.49;48.26;101170.56;700041;28;93384;-65
2022/08/03 01:36:34;;;;;;;967.47;903.47;;;;;;;22.50;48.41;101165.88;698480;28;114866;-66
2022/08/03 01:36:56;;;;;;;969.67;905.50;;;;;;;22.50;48.40;101171.38;698695;28;90598;-65
2022/08/03 01:37:24;;;;;;;961.67;897.78;;;;;;;22.50;48.49;101174.97;701219;28;47069;-65
2022/08/03 01:37:50;;;;;;;966.60;902.60;;;;;;;22.51;48.51;101173.06;698245;28;136447;-66
2022/08/03 01:38:14;;;;;;;965.08;901.13;;;;;;;22.53;48.35;101168.13;697992;28;137632;-65
2022/08/03 01:38:41;;;;;;;973.63;909.35;;;;;;;22.49;48.51;101165.06;699569;28;92977;-66
2022/08/03 01:39:08;;;;;;;977.92;913.53;;;;;;;22.55;48.44;101162.38;698345;28;136423;-65
2022/08/03 01:39:31;;;;;;;950.97;887.60;;;;;;;22.55;48.23;101163.22;698372;28;136356;-66
2022/08/03 01:39:55;;;;;;;933.00;870.13;;;;;;;22.53;48.54;101168.13;699169;28;92248;-66
2022/08/03 01:40:16;;;;;;;931.17;868.33;;;;;;;22.58;48.34;101170.16;700625;28;69401;-66
2022/08/03 01:40:39;;;;;;;937.58;874.50;;;;;;;22.58;48.58;101172.91;701303;28;44359;-65
2022/08/03 01:41:04;;;;;;;931.00;868.20;;;;;;;22.57;48.53;101168.47;700287;28;69429;-66
2022/08/03 01:41:30;;;;;;;937.17;874.20;;;;;;;22.55;48.53;101163.22;697288;28;137927;-66
2022/08/03 01:41:58;;;;;;;930.50;867.67;;;;;;;22.58;48.62;101164.66;699191;28;116116;-65
2022/08/03 01:42:19;;;;;;;954.83;891.15;;;;;;;22.59;48.70;101171.81;698230;28;138480;-66
2022/08/03 01:42:42;;;;;;;950.55;887.13;;;;;;;22.55;48.79;101163.22;701436;28;44350;-66
2022/08/03 01:43:05;;;;;;;948.60;885.17;;;;;;;22.57;48.79;101166.56;700953;28;57490;-66
2022/08/03 01:43:28;;;;;;;945.57;882.27;;;;;;;22.58;48.65;101172.91;702336;28;35593;-65
2022/08/03 01:43:50;;;;;;;941.95;878.67;;;;;;;22.58;48.46;101165.47;699250;28;69255;-66
2022/08/03 01:44:13;;;;;;;920.65;858.08;;;;;;;22.58;48.61;101161.88;701129;28;69301;-66
2022/08/03 01:44:39;;;;;;;933.28;870.33;;;;;;;22.59;48.58;101164.41;701593;28;46303;-66
2022/08/03 01:45:03;;;;;;;954.03;890.53;;;;;;;22.57;48.81;101160.22;697793;28;138082;-65
2022/08/03 01:45:26;;;;;;;958.15;894.40;;;;;;;22.59;48.93;101164.41;699583;28;92194;-65
2022/08/03 01:45:49;;;;;;;966.08;902.03;;;;;;;22.59;48.78;101161.66;701056;27;45227;-65